Time;durP1;ratioP1;P1;durP2;ratioP2;P2;SDS_P1;SDS_P2;PMS_P1;PMS_P2;Temp;Humidity;BMP_temperature;BMP_pressure;BME280_temperature;BME280_humidity;BME280_pressure;Samples;Min_cycle;Max_cycle;Signal;HPM_P1;HPM_P2
2021/12/20 00:01:41;;;;;;;7.63;2.10;;;1.50;99.90;;;;;;5164617;28;20219;-49
2021/12/20 00:04:12;;;;;;;1.33;1.13;;;1.50;99.90;;;;;;5156726;28;20189;-48
2021/12/20 00:06:42;;;;;;;3.53;1.37;;;1.50;99.90;;;;;;5146770;28;20996;-48
2021/12/20 00:09:13;;;;;;;2.87;1.40;;;1.40;99.90;;;;;;5142048;28;20177;-49
2021/12/20 00:11:44;;;;;;;3.60;1.20;;;1.50;99.90;;;;;;5146177;28;20290;-49
2021/12/20 00:14:14;;;;;;;1.00;0.97;;;1.50;99.90;;;;;;5145418;28;20189;-49
2021/12/20 00:16:45;;;;;;;8.63;1.17;;;1.40;99.90;;;;;;5149046;28;20262;-50
2021/12/20 00:19:15;;;;;;;2.00;1.23;;;1.40;99.90;;;;;;5159054;28;20239;-48
2021/12/20 00:21:46;;;;;;;5.10;1.37;;;1.40;99.90;;;;;;5158420;28;20248;-47
2021/12/20 00:24:18;;;;;;;10.43;1.77;;;1.40;99.90;;;;;;5139226;28;20592;-48
2021/12/20 00:26:49;;;;;;;2.30;1.30;;;1.30;99.90;;;;;;5154806;28;20185;-48
2021/12/20 00:29:19;;;;;;;4.27;1.50;;;1.30;99.90;;;;;;5143080;28;20784;-48
2021/12/20 00:31:50;;;;;;;1.70;1.27;;;1.30;99.90;;;;;;5163908;28;20888;-49
2021/12/20 00:34:20;;;;;;;3.93;1.40;;;1.20;99.90;;;;;;5145066;28;20671;-48
2021/12/20 00:37:00;;;;;;;5.27;1.27;;;1.20;99.90;;;;;;5163827;28;20564;-49
2021/12/20 00:42:20;;;;;;;2.27;1.53;;;1.20;99.90;;;;;;5166597;28;20457;-48
2021/12/20 00:44:51;;;;;;;4.73;1.37;;;1.10;99.90;;;;;;5128022;28;20504;-48
2021/12/20 00:47:21;;;;;;;5.47;1.10;;;1.10;99.90;;;;;;5161814;28;20249;-48
2021/12/20 00:49:52;;;;;;;4.17;1.00;;;1.10;99.90;;;;;;5160822;28;20240;-50
2021/12/20 00:52:22;;;;;;;1.03;1.03;;;1.10;99.90;;;;;;5151380;28;20255;-48
2021/12/20 00:54:53;;;;;;;4.20;1.10;;;1.10;99.90;;;;;;5161496;28;20184;-48
2021/12/20 00:57:24;;;;;;;3.57;0.97;;;1.10;99.90;;;;;;5145063;28;20556;-49
2021/12/20 00:59:54;;;;;;;0.90;0.90;;;1.10;99.90;;;;;;5157415;28;20219;-49
2021/12/20 01:02:25;;;;;;;6.10;1.60;;;1.10;99.90;;;;;;5160414;28;20205;-49
2021/12/20 01:04:55;;;;;;;8.10;1.07;;;1.10;99.90;;;;;;5161185;28;20670;-50
2021/12/20 01:07:26;;;;;;;1.30;0.97;;;1.10;99.90;;;;;;5160222;28;20231;-49
2021/12/20 01:10:03;;;;;;;2.53;1.60;;;1.00;99.90;;;;;;5139020;28;20657;-49
2021/12/20 01:12:45;;;;;;;3.30;1.10;;;1.10;99.90;;;;;;5147304;28;20221;-49
2021/12/20 01:15:31;;;;;;;6.20;1.40;;;1.00;99.90;;;;;;5145033;28;20705;-49
2021/12/20 01:18:04;;;;;;;5.63;1.00;;;1.10;99.90;;;;;;5147506;28;20478;-49
2021/12/20 01:20:36;;;;;;;8.33;1.03;;;1.00;99.90;;;;;;5162899;28;20489;-50
2021/12/20 01:23:06;;;;;;;4.37;1.07;;;1.00;99.90;;;;;;5168075;28;20456;-49
2021/12/20 01:25:37;;;;;;;2.07;1.10;;;0.90;99.90;;;;;;5140305;28;20804;-50
2021/12/20 01:28:09;;;;;;;1.80;1.47;;;0.90;99.90;;;;;;5167144;28;20234;-49
2021/12/20 01:30:40;;;;;;;3.30;1.43;;;0.90;99.90;;;;;;5153586;28;20468;-49
2021/12/20 01:33:12;;;;;;;0.70;0.63;;;1.00;99.90;;;;;;5148207;28;20451;-49
2021/12/20 01:35:43;;;;;;;6.53;1.00;;;0.90;99.90;;;;;;5160470;28;20436;-48
2021/12/20 01:38:14;;;;;;;4.10;1.13;;;0.90;99.90;;;;;;5145327;28;20470;-50
2021/12/20 01:40:44;;;;;;;1.10;0.87;;;0.90;99.90;;;;;;5136902;28;20224;-49
2021/12/20 01:43:16;;;;;;;1.20;0.90;;;0.90;99.90;;;;;;5149605;28;20696;-49
2021/12/20 01:45:49;;;;;;;12.10;1.33;;;0.80;99.90;;;;;;5155318;28;20597;-49
2021/12/20 01:48:21;;;;;;;0.63;0.63;;;0.80;99.90;;;;;;5160966;28;20524;-49
2021/12/20 01:53:31;;;;;;;3.13;1.07;;;0.80;99.90;;;;;;5208812;23;20533;-50
2021/12/20 01:56:03;;;;;;;1.20;0.70;;;0.80;99.90;;;;;;5199923;28;20474;-51
2021/12/20 01:58:33;;;;;;;4.63;0.87;;;0.70;99.90;;;;;;5178017;28;20794;-49
2021/12/20 02:03:43;;;;;;;1.13;1.00;;;0.70;99.90;;;;;;5181973;28;20742;-49
2021/12/20 02:06:34;;;;;;;1.47;0.60;;;0.70;99.90;;;;;;5181667;28;20431;-50
2021/12/20 02:09:09;;;;;;;1.60;1.00;;;0.80;99.90;;;;;;5179318;28;20935;-49
2021/12/20 02:11:43;;;;;;;2.17;0.80;;;0.70;99.90;;;;;;5163965;28;20461;-49
2021/12/20 02:14:15;;;;;;;4.43;0.93;;;0.70;99.90;;;;;;5165002;28;20435;-48
2021/12/20 02:16:46;;;;;;;7.83;1.10;;;0.70;99.90;;;;;;5187330;28;20430;-50
2021/12/20 02:19:18;;;;;;;6.07;1.20;;;0.70;99.90;;;;;;5178766;28;20428;-50
2021/12/20 02:21:48;;;;;;;1.80;1.30;;;0.70;99.90;;;;;;5186471;28;20446;-49
2021/12/20 02:24:19;;;;;;;4.20;1.00;;;0.70;99.90;;;;;;5180342;28;20491;-50
2021/12/20 02:26:49;;;;;;;2.63;0.93;;;0.60;99.90;;;;;;5165255;28;20242;-51
2021/12/20 02:29:27;;;;;;;7.17;1.30;;;0.70;99.90;;;;;;5174845;28;20717;-50
2021/12/20 02:37:36;;;;;;;3.90;1.40;;;0.70;99.90;;;;;;5187282;28;20520;-48
2021/12/20 02:40:07;;;;;;;1.73;0.70;;;0.60;99.90;;;;;;5164781;28;20439;-48
2021/12/20 02:42:40;;;;;;;1.57;0.53;;;0.70;99.90;;;;;;5186674;28;20211;-47
2021/12/20 02:45:15;;;;;;;1.23;0.73;;;0.70;99.90;;;;;;5180731;28;20492;-48
2021/12/20 02:47:47;;;;;;;8.23;1.40;;;0.60;99.90;;;;;;5168958;28;20514;-48
2021/12/20 02:50:18;;;;;;;3.00;1.00;;;0.60;99.90;;;;;;5161856;28;20435;-49
2021/12/20 02:52:48;;;;;;;0.60;0.60;;;0.60;99.90;;;;;;5185443;28;20546;-48
2021/12/20 02:55:19;;;;;;;9.87;1.10;;;0.50;99.90;;;;;;5185009;28;20238;-49
2021/12/20 02:57:49;;;;;;;2.90;1.00;;;0.50;99.90;;;;;;5162924;28;20579;-49
2021/12/20 03:00:20;;;;;;;8.97;1.83;;;0.50;99.90;;;;;;5182659;28;20180;-49
2021/12/20 03:02:50;;;;;;;1.10;1.10;;;0.50;99.90;;;;;;5162747;28;20668;-48
2021/12/20 03:05:21;;;;;;;3.07;1.20;;;0.50;99.90;;;;;;5171870;28;20191;-49
2021/12/20 03:07:53;;;;;;;1.57;1.03;;;0.50;99.90;;;;;;5177599;28;20282;-49
2021/12/20 03:10:25;;;;;;;12.63;1.00;;;0.50;99.90;;;;;;5184072;28;20510;-48
2021/12/20 03:12:57;;;;;;;6.70;0.97;;;0.50;99.90;;;;;;5167197;28;20464;-50
2021/12/20 03:15:27;;;;;;;1.30;0.83;;;0.40;99.90;;;;;;5182480;28;20456;-49
2021/12/20 03:17:58;;;;;;;4.00;1.63;;;0.40;99.90;;;;;;5163547;28;20459;-48
2021/12/20 03:20:29;;;;;;;3.57;1.10;;;0.40;99.90;;;;;;5178840;28;20461;-48
2021/12/20 03:22:59;;;;;;;7.40;1.20;;;0.40;99.90;;;;;;5164083;28;20196;-48
2021/12/20 03:25:30;;;;;;;3.90;0.80;;;0.40;99.90;;;;;;5165450;28;20196;-49
2021/12/20 03:28:00;;;;;;;3.03;0.90;;;0.40;99.90;;;;;;5166404;28;20268;-48
2021/12/20 03:30:31;;;;;;;6.00;1.00;;;0.40;99.90;;;;;;5183855;28;20245;-49
2021/12/20 03:33:01;;;;;;;2.73;0.97;;;0.40;99.90;;;;;;5179023;28;20262;-47
2021/12/20 03:35:32;;;;;;;1.50;0.80;;;0.30;99.90;;;;;;5176427;28;20204;-50
2021/12/20 03:38:03;;;;;;;1.80;1.07;;;0.30;99.90;;;;;;5168473;28;20265;-49
2021/12/20 03:40:34;;;;;;;7.53;1.23;;;0.30;99.90;;;;;;5184824;28;20183;-48
2021/12/20 03:43:05;;;;;;;4.90;1.53;;;0.30;99.90;;;;;;5176477;28;20455;-48
2021/12/20 03:45:37;;;;;;;8.37;1.10;;;0.30;99.90;;;;;;5178493;28;20184;-48
2021/12/20 03:48:08;;;;;;;2.00;1.03;;;0.30;99.90;;;;;;5158958;28;21096;-49
2021/12/20 03:50:38;;;;;;;4.03;1.47;;;0.30;99.90;;;;;;5182444;28;20564;-48
2021/12/20 03:53:09;;;;;;;1.60;1.00;;;0.30;99.90;;;;;;5182182;28;20220;-48
2021/12/20 03:55:40;;;;;;;4.53;1.33;;;0.30;99.90;;;;;;5170169;28;20188;-48
2021/12/20 03:58:10;;;;;;;4.70;1.20;;;0.30;99.90;;;;;;5165043;28;20588;-48
2021/12/20 04:00:41;;;;;;;5.30;2.43;;;0.30;99.90;;;;;;5178591;28;20192;-48
2021/12/20 04:03:13;;;;;;;2.20;0.97;;;0.30;99.90;;;;;;5167375;28;20202;-48
2021/12/20 04:05:44;;;;;;;8.07;1.27;;;0.30;99.90;;;;;;5168447;28;20168;-49
2021/12/20 04:08:14;;;;;;;1.90;0.93;;;0.20;99.90;;;;;;5161106;28;20445;-50
2021/12/20 04:10:45;;;;;;;5.30;1.63;;;0.20;99.90;;;;;;5167899;28;20218;-48
2021/12/20 04:13:16;;;;;;;2.17;0.93;;;0.20;99.90;;;;;;5184062;28;20201;-49
2021/12/20 04:15:46;;;;;;;2.73;0.93;;;0.20;99.90;;;;;;5179684;28;20187;-47
2021/12/20 04:18:17;;;;;;;5.10;1.37;;;0.20;99.90;;;;;;5174453;28;20212;-48
2021/12/20 04:20:48;;;;;;;10.07;1.40;;;0.20;99.90;;;;;;5183464;28;20204;-48
2021/12/20 04:23:19;;;;;;;4.23;1.13;;;0.10;99.90;;;;;;5175877;28;20189;-47
2021/12/20 04:25:50;;;;;;;4.40;1.57;;;0.10;99.90;;;;;;5181434;28;20442;-47
2021/12/20 04:28:21;;;;;;;7.10;1.10;;;0.10;99.90;;;;;;5194370;28;20947;-48
2021/12/20 04:30:51;;;;;;;4.10;1.47;;;0.00;99.90;;;;;;5189232;28;20195;-48
2021/12/20 04:33:22;;;;;;;7.40;2.10;;;0.00;99.90;;;;;;5181795;28;20208;-49
2021/12/20 04:35:53;;;;;;;8.77;1.33;;;-0.10;99.90;;;;;;5187575;28;20268;-49
2021/12/20 04:38:25;;;;;;;2.10;1.90;;;0.00;99.90;;;;;;5179888;28;20204;-48
2021/12/20 04:40:56;;;;;;;3.77;0.90;;;0.00;99.90;;;;;;5168674;28;20183;-47
2021/12/20 04:43:26;;;;;;;7.23;1.47;;;-0.10;99.90;;;;;;5192789;28;20465;-49
2021/12/20 04:45:57;;;;;;;4.70;0.97;;;-0.10;99.90;;;;;;5170278;28;20783;-48
2021/12/20 04:48:28;;;;;;;1.80;1.30;;;0.00;99.90;;;;;;5191063;28;20257;-48
2021/12/20 04:50:59;;;;;;;7.53;1.67;;;0.00;99.90;;;;;;5153223;28;20303;-48
2021/12/20 04:53:29;;;;;;;5.70;1.33;;;-0.10;99.90;;;;;;5184001;28;20483;-47
2021/12/20 04:56:00;;;;;;;2.03;1.13;;;-0.10;99.90;;;;;;5162824;28;20272;-49
2021/12/20 04:58:30;;;;;;;6.23;1.27;;;-0.10;99.90;;;;;;5163005;28;20214;-48
2021/12/20 05:01:01;;;;;;;5.40;1.50;;;-0.10;99.90;;;;;;5179158;28;20180;-47
2021/12/20 05:03:32;;;;;;;4.00;1.40;;;-0.10;99.90;;;;;;5153228;28;20211;-48
2021/12/20 05:06:02;;;;;;;2.17;1.63;;;-0.10;99.90;;;;;;5182540;28;20655;-47
2021/12/20 05:08:46;;;;;;;3.13;1.20;;;-0.10;99.90;;;;;;5185167;28;20224;-48
2021/12/20 05:11:17;;;;;;;10.23;1.50;;;-0.20;99.90;;;;;;5173724;28;20189;-47
2021/12/20 05:13:47;;;;;;;2.17;1.17;;;-0.20;99.90;;;;;;5164212;28;20780;-48
2021/12/20 05:16:18;;;;;;;6.30;1.33;;;-0.20;99.90;;;;;;5169100;28;20431;-48
2021/12/20 05:18:49;;;;;;;2.43;1.10;;;-0.20;99.90;;;;;;5166905;28;20605;-48
2021/12/20 05:21:19;;;;;;;7.87;1.30;;;-0.20;99.90;;;;;;5178720;28;21153;-48
2021/12/20 05:23:52;;;;;;;7.50;1.77;;;-0.20;99.90;;;;;;5184395;28;20306;-47
2021/12/20 05:26:22;;;;;;;10.07;1.80;;;-0.20;99.90;;;;;;5167441;28;20763;-47
2021/12/20 05:28:55;;;;;;;3.13;2.83;;;-0.20;99.90;;;;;;5176348;28;20432;-48
2021/12/20 05:31:25;;;;;;;4.47;2.00;;;-0.20;99.90;;;;;;5167107;28;20334;-49
2021/12/20 05:33:56;;;;;;;4.37;1.60;;;-0.30;99.90;;;;;;5181390;28;20525;-48
2021/12/20 05:36:26;;;;;;;3.93;1.20;;;-0.20;99.90;;;;;;5182662;28;20194;-48
2021/12/20 05:38:57;;;;;;;7.40;1.90;;;-0.20;99.90;;;;;;5157732;28;20202;-49
2021/12/20 05:41:27;;;;;;;9.60;1.73;;;-0.30;99.90;;;;;;5170552;28;20276;-48
2021/12/20 05:43:58;;;;;;;12.47;2.17;;;-0.20;99.90;;;;;;5162572;28;20177;-49
2021/12/20 05:46:29;;;;;;;17.37;1.87;;;-0.20;99.90;;;;;;5182139;28;20631;-47
2021/12/20 05:48:59;;;;;;;3.17;1.67;;;-0.30;99.90;;;;;;5176540;28;20198;-48
2021/12/20 05:51:30;;;;;;;6.97;1.53;;;-0.30;99.90;;;;;;5162979;28;20232;-49
2021/12/20 05:54:01;;;;;;;5.43;1.70;;;-0.20;99.90;;;;;;5181665;28;20185;-47
2021/12/20 05:56:31;;;;;;;5.00;1.20;;;-0.20;99.90;;;;;;5179800;28;20196;-47
2021/12/20 05:59:02;;;;;;;4.27;1.53;;;-0.20;99.90;;;;;;5179007;28;20220;-49
2021/12/20 06:01:33;;;;;;;3.13;1.47;;;-0.20;99.90;;;;;;5182583;28;20217;-48
2021/12/20 06:04:03;;;;;;;6.10;1.50;;;-0.20;99.90;;;;;;5174013;28;20443;-47
2021/12/20 06:06:34;;;;;;;1.47;1.40;;;-0.20;99.90;;;;;;5162608;28;20188;-48
2021/12/20 06:09:05;;;;;;;4.63;1.30;;;-0.20;99.90;;;;;;5163784;28;20186;-49
2021/12/20 06:11:35;;;;;;;7.10;1.80;;;-0.10;99.90;;;;;;5185311;28;20205;-46
2021/12/20 06:14:07;;;;;;;4.00;1.30;;;-0.10;99.90;;;;;;5181210;28;20670;-51
2021/12/20 06:16:38;;;;;;;9.27;1.70;;;-0.10;99.90;;;;;;5172399;28;20268;-49
2021/12/20 06:19:08;;;;;;;2.40;1.80;;;0.00;99.90;;;;;;5175970;28;20552;-48
2021/12/20 06:21:39;;;;;;;5.90;1.10;;;0.00;99.90;;;;;;5158003;28;20212;-50
2021/12/20 06:24:09;;;;;;;2.70;1.13;;;0.10;99.90;;;;;;5164738;28;20601;-49
2021/12/20 06:26:40;;;;;;;5.90;1.90;;;0.10;99.90;;;;;;5175766;28;20196;-50
2021/12/20 06:29:10;;;;;;;6.20;2.23;;;0.10;99.90;;;;;;5168981;28;20192;-48
2021/12/20 06:31:41;;;;;;;5.30;1.60;;;0.10;99.90;;;;;;5179495;28;20525;-48
2021/12/20 06:34:12;;;;;;;2.63;2.00;;;0.00;99.90;;;;;;5158131;28;20192;-48
2021/12/20 06:36:42;;;;;;;4.50;1.47;;;0.10;99.90;;;;;;5174536;28;20183;-51
2021/12/20 06:39:13;;;;;;;5.70;1.70;;;0.00;99.90;;;;;;5155425;28;20184;-49
2021/12/20 06:41:44;;;;;;;3.07;1.63;;;0.10;99.90;;;;;;5158766;28;20986;-50
2021/12/20 06:44:14;;;;;;;2.93;1.20;;;0.10;99.90;;;;;;5158967;28;20435;-49
2021/12/20 06:46:45;;;;;;;4.10;1.33;;;0.00;99.90;;;;;;5154132;28;20209;-50
2021/12/20 06:49:16;;;;;;;3.77;1.17;;;0.00;99.90;;;;;;5155536;28;20766;-51
2021/12/20 06:51:47;;;;;;;5.33;1.80;;;0.00;99.90;;;;;;5165610;28;20259;-49
2021/12/20 06:54:19;;;;;;;4.93;1.67;;;0.00;99.90;;;;;;5157449;28;20188;-49
2021/12/20 06:56:49;;;;;;;5.20;1.80;;;0.00;99.90;;;;;;5174597;28;20186;-47
2021/12/20 06:59:20;;;;;;;2.73;1.40;;;0.00;99.90;;;;;;5172203;28;20458;-48
2021/12/20 07:01:51;;;;;;;6.13;2.23;;;0.00;99.90;;;;;;5174636;28;20283;-48
2021/12/20 07:04:21;;;;;;;7.43;2.23;;;0.00;99.90;;;;;;5176838;28;20245;-51
2021/12/20 07:06:53;;;;;;;3.97;2.67;;;0.00;99.90;;;;;;5176371;28;20238;-50
2021/12/20 07:09:24;;;;;;;2.90;1.83;;;-0.10;99.90;;;;;;5169083;28;20627;-49
2021/12/20 07:11:54;;;;;;;3.73;1.60;;;-0.10;99.90;;;;;;5176371;28;20652;-49
2021/12/20 07:14:27;;;;;;;5.10;1.50;;;-0.10;99.90;;;;;;5179416;28;20176;-48
2021/12/20 07:16:57;;;;;;;12.97;1.33;;;-0.10;99.90;;;;;;5177753;28;20738;-48
2021/12/20 07:19:28;;;;;;;6.67;2.07;;;-0.10;99.90;;;;;;5172283;28;20526;-48
2021/12/20 07:21:59;;;;;;;3.70;1.60;;;-0.10;99.90;;;;;;5174503;28;20225;-47
2021/12/20 07:24:29;;;;;;;7.97;2.20;;;-0.10;99.90;;;;;;5155825;28;20192;-48
2021/12/20 07:27:00;;;;;;;5.13;1.40;;;-0.10;99.90;;;;;;5176663;28;20195;-49
2021/12/20 07:29:31;;;;;;;7.20;1.97;;;-0.10;99.90;;;;;;5172350;28;20276;-48
2021/12/20 07:32:01;;;;;;;4.07;1.70;;;-0.10;99.90;;;;;;5177711;28;20598;-48
2021/12/20 07:34:32;;;;;;;10.57;3.03;;;0.00;99.90;;;;;;5174006;28;20176;-49
2021/12/20 07:37:03;;;;;;;1.83;1.67;;;0.00;99.90;;;;;;5175155;28;20192;-51
2021/12/20 07:39:33;;;;;;;6.70;1.63;;;0.00;99.90;;;;;;5168637;28;20192;-49
2021/12/20 07:42:04;;;;;;;6.33;1.93;;;0.00;99.90;;;;;;5160664;28;20237;-49
2021/12/20 07:44:35;;;;;;;12.60;2.67;;;0.00;99.90;;;;;;5157714;28;20211;-49
2021/12/20 07:47:05;;;;;;;4.83;1.97;;;0.10;99.90;;;;;;5181218;28;20198;-49
2021/12/20 07:49:36;;;;;;;7.67;2.87;;;0.10;99.90;;;;;;5166618;28;20214;-49
2021/12/20 07:52:07;;;;;;;5.83;2.40;;;0.20;99.90;;;;;;5175015;28;20235;-50
2021/12/20 07:54:37;;;;;;;5.43;2.00;;;0.10;99.90;;;;;;5181062;28;20185;-49
2021/12/20 07:57:08;;;;;;;5.43;2.33;;;0.20;99.90;;;;;;5162834;28;20207;-48
2021/12/20 07:59:38;;;;;;;3.70;1.93;;;0.20;99.90;;;;;;5163713;28;20657;-48
2021/12/20 08:02:09;;;;;;;13.87;2.80;;;0.30;99.90;;;;;;5193698;23;20236;-50
2021/12/20 08:04:40;;;;;;;4.40;2.10;;;0.30;99.90;;;;;;5166694;28;20193;-49
2021/12/20 08:07:10;;;;;;;12.00;2.40;;;0.30;99.90;;;;;;5160250;28;20644;-48
2021/12/20 08:09:41;;;;;;;7.60;2.40;;;0.30;99.90;;;;;;5179599;28;20184;-50
2021/12/20 08:12:11;;;;;;;6.63;1.80;;;0.30;99.90;;;;;;5184801;28;20641;-51
2021/12/20 08:14:42;;;;;;;10.23;2.80;;;0.30;99.90;;;;;;5169024;28;20181;-48
2021/12/20 08:17:12;;;;;;;6.83;2.67;;;0.30;99.90;;;;;;5190633;28;20293;-48
2021/12/20 08:19:43;;;;;;;9.33;2.50;;;0.40;99.90;;;;;;5184003;28;20267;-49
2021/12/20 08:22:14;;;;;;;7.20;2.50;;;0.40;99.90;;;;;;5184308;28;20202;-48
2021/12/20 08:24:44;;;;;;;8.27;2.30;;;0.40;99.90;;;;;;5182126;28;20212;-49
2021/12/20 08:27:15;;;;;;;8.97;2.77;;;0.40;99.90;;;;;;5179912;28;20552;-49
2021/12/20 08:29:45;;;;;;;4.90;2.67;;;0.40;99.90;;;;;;5169552;28;20178;-49
2021/12/20 08:32:16;;;;;;;2.50;1.60;;;0.60;99.90;;;;;;5181116;28;20212;-48
2021/12/20 08:34:46;;;;;;;4.10;2.00;;;0.50;99.90;;;;;;5160237;28;20351;-48
2021/12/20 08:37:17;;;;;;;2.83;1.50;;;0.40;99.90;;;;;;5172402;28;20286;-50
2021/12/20 08:39:51;;;;;;;13.63;2.43;;;0.50;99.90;;;;;;5170844;28;20207;-49
2021/12/20 08:42:22;;;;;;;8.03;2.10;;;0.60;99.90;;;;;;5171511;28;20210;-49
2021/12/20 08:44:53;;;;;;;5.40;2.40;;;0.60;99.90;;;;;;5173615;28;20469;-48
2021/12/20 08:47:23;;;;;;;6.57;2.30;;;0.70;99.90;;;;;;5157926;28;20750;-49
2021/12/20 08:49:54;;;;;;;7.10;2.40;;;0.80;99.90;;;;;;5163629;28;20196;-49
2021/12/20 08:52:25;;;;;;;2.77;2.53;;;0.80;99.90;;;;;;5164484;28;20227;-49
2021/12/20 08:54:55;;;;;;;5.13;2.50;;;0.90;99.90;;;;;;5182599;28;20226;-49
2021/12/20 08:57:26;;;;;;;6.27;2.33;;;0.80;99.90;;;;;;5166434;28;20863;-49
2021/12/20 08:59:57;;;;;;;6.03;2.10;;;0.90;99.90;;;;;;5179591;28;20172;-49
2021/12/20 09:02:27;;;;;;;6.73;2.33;;;0.90;99.90;;;;;;5179329;28;20220;-51
2021/12/20 09:04:58;;;;;;;8.13;2.90;;;1.00;99.90;;;;;;5171761;28;20176;-48
2021/12/20 09:07:29;;;;;;;8.03;2.73;;;1.00;99.90;;;;;;5175740;28;20211;-49
2021/12/20 09:10:00;;;;;;;5.03;2.40;;;1.00;99.90;;;;;;5173888;28;20667;-51
2021/12/20 09:12:30;;;;;;;6.37;3.10;;;1.10;99.90;;;;;;5179019;28;20779;-49
2021/12/20 09:15:01;;;;;;;9.90;2.90;;;1.20;99.90;;;;;;5161900;28;20534;-49
2021/12/20 09:17:32;;;;;;;6.43;2.10;;;1.20;99.90;;;;;;5174633;28;20203;-48
2021/12/20 09:20:03;;;;;;;2.83;1.90;;;1.20;99.90;;;;;;5163297;28;20439;-49
2021/12/20 09:22:39;;;;;;;3.63;2.17;;;1.30;99.90;;;;;;5157841;28;20545;-50
2021/12/20 09:25:09;;;;;;;3.27;2.00;;;1.30;99.90;;;;;;5172725;28;20434;-49
2021/12/20 09:27:40;;;;;;;10.33;2.03;;;1.40;99.90;;;;;;5175965;28;20590;-50
2021/12/20 09:30:12;;;;;;;12.90;2.23;;;1.40;99.90;;;;;;5163043;28;20199;-53
2021/12/20 09:32:43;;;;;;;4.17;1.77;;;1.50;99.90;;;;;;5172753;28;20205;-51
2021/12/20 09:35:14;;;;;;;3.60;2.37;;;1.50;99.90;;;;;;5152684;28;20435;-50
2021/12/20 09:37:49;;;;;;;3.60;2.20;;;1.60;99.90;;;;;;5172521;28;20467;-49
2021/12/20 09:40:39;;;;;;;1.80;1.70;;;1.60;99.90;;;;;;5156804;28;20188;-49
2021/12/20 09:43:13;;;;;;;5.20;2.20;;;1.70;99.90;;;;;;5162011;28;20518;-48
2021/12/20 09:45:45;;;;;;;6.33;1.90;;;1.80;99.90;;;;;;5179064;28;20431;-50
2021/12/20 09:48:16;;;;;;;7.63;2.23;;;1.80;99.90;;;;;;5179173;28;20561;-49
2021/12/20 09:50:47;;;;;;;4.67;2.23;;;1.90;99.90;;;;;;5179931;28;20558;-50
2021/12/20 09:53:19;;;;;;;4.10;1.33;;;1.90;99.90;;;;;;5146063;28;20251;-50
2021/12/20 09:55:51;;;;;;;9.20;2.00;;;1.90;99.90;;;;;;5172456;28;20922;-50
2021/12/20 09:58:23;;;;;;;6.90;2.53;;;1.90;99.90;;;;;;5168695;28;20486;-50
2021/12/20 10:00:55;;;;;;;9.77;2.50;;;2.00;99.90;;;;;;5172511;28;21192;-51
2021/12/20 10:03:25;;;;;;;9.73;2.23;;;2.00;99.90;;;;;;5175561;28;20830;-48
2021/12/20 10:05:57;;;;;;;9.50;2.40;;;2.10;99.90;;;;;;5168997;28;20431;-48
2021/12/20 10:08:33;;;;;;;6.93;1.90;;;2.20;99.90;;;;;;5158004;28;20192;-49
2021/12/20 10:11:18;;;;;;;11.43;2.37;;;2.20;99.90;;;;;;5170698;28;20485;-50
2021/12/20 10:13:49;;;;;;;7.10;4.10;;;2.30;99.90;;;;;;5157634;28;20465;-50
2021/12/20 10:16:22;;;;;;;9.70;2.20;;;2.30;99.90;;;;;;5158805;28;20447;-50
2021/12/20 10:18:52;;;;;;;12.57;3.00;;;2.40;99.90;;;;;;5168332;28;20528;-49
2021/12/20 10:21:45;;;;;;;2.50;1.60;;;2.40;99.90;;;;;;5160481;28;20838;-52
2021/12/20 10:24:32;;;;;;;9.63;1.93;;;2.50;99.90;;;;;;5171727;28;20684;-49
2021/12/20 10:27:04;;;;;;;6.30;2.40;;;2.50;99.90;;;;;;5158537;28;20451;-50
2021/12/20 10:29:36;;;;;;;7.53;1.77;;;2.60;99.90;;;;;;5172342;28;20573;-48
2021/12/20 10:32:09;;;;;;;4.40;1.67;;;2.70;99.90;;;;;;5156005;28;20607;-49
2021/12/20 10:34:39;;;;;;;7.53;2.10;;;2.60;99.90;;;;;;5168189;28;20440;-51
2021/12/20 10:37:10;;;;;;;4.93;2.43;;;2.60;99.90;;;;;;5153130;28;20482;-52
2021/12/20 10:39:45;;;;;;;7.20;2.37;;;2.60;99.90;;;;;;5147255;28;20235;-50
2021/12/20 10:42:28;;;;;;;3.90;1.87;;;2.70;99.90;;;;;;5169379;28;20204;-49
2021/12/20 10:45:17;;;;;;;9.43;3.27;;;2.70;99.90;;;;;;5167110;28;20447;-51
2021/12/20 10:47:50;;;;;;;4.00;1.67;;;2.70;99.90;;;;;;5161783;28;20437;-52
2021/12/20 10:50:40;;;;;;;5.33;2.37;;;2.80;99.90;;;;;;5168737;28;20593;-50
2021/12/20 10:53:21;;;;;;;5.60;2.47;;;2.80;99.90;;;;;;5169494;28;20431;-49
2021/12/20 10:56:02;;;;;;;1.93;1.70;;;2.70;99.90;;;;;;5151323;28;20435;-49
2021/12/20 10:58:38;;;;;;;4.37;2.50;;;2.90;99.90;;;;;;5155767;28;20482;-49
2021/12/20 11:01:16;;;;;;;11.53;2.53;;;2.90;99.90;;;;;;5167893;28;20471;-50
2021/12/20 11:03:56;;;;;;;4.87;2.27;;;3.00;99.90;;;;;;5160514;28;20419;-50
2021/12/20 11:09:13;;;;;;;9.67;2.10;;;3.20;99.90;;;;;;5166329;28;20782;-50
2021/12/20 11:11:57;;;;;;;5.37;2.03;;;3.30;99.90;;;;;;5159625;28;20465;-50
2021/12/20 11:14:37;;;;;;;4.83;1.40;;;3.20;99.90;;;;;;5166964;28;20459;-50
2021/12/20 11:17:12;;;;;;;6.77;2.47;;;3.20;99.90;;;;;;5146950;28;20756;-51
2021/12/20 11:19:48;;;;;;;9.10;4.40;;;3.30;99.90;;;;;;5164768;28;20499;-50
2021/12/20 11:22:26;;;;;;;6.60;3.77;;;3.30;99.90;;;;;;5166098;28;20461;-49
2021/12/20 11:25:08;;;;;;;9.57;3.30;;;3.20;99.90;;;;;;5166498;28;20482;-49
2021/12/20 11:27:42;;;;;;;8.47;2.30;;;3.20;99.90;;;;;;5169784;28;20439;-51
2021/12/20 11:30:16;;;;;;;9.20;4.20;;;3.20;99.90;;;;;;5170755;28;20442;-49
2021/12/20 11:32:48;;;;;;;24.20;11.40;;;3.20;99.90;;;;;;5168954;28;20460;-50
2021/12/20 11:35:21;;;;;;;13.50;7.73;;;3.40;99.90;;;;;;5164805;28;20455;-49
2021/12/20 11:37:52;;;;;;;7.10;1.93;;;3.40;99.90;;;;;;5168980;28;20499;-50
2021/12/20 11:40:22;;;;;;;7.77;2.00;;;3.30;99.90;;;;;;5171101;28;20441;-50
2021/12/20 11:42:56;;;;;;;2.77;1.87;;;3.20;99.90;;;;;;5168441;28;20216;-51
2021/12/20 11:45:27;;;;;;;9.30;2.43;;;3.30;99.90;;;;;;5172867;28;20869;-53
2021/12/20 11:48:14;;;;;;;7.33;2.57;;;3.20;99.90;;;;;;5155099;28;20439;-51
2021/12/20 11:50:45;;;;;;;4.53;1.40;;;3.20;99.90;;;;;;5176920;28;20898;-50
2021/12/20 11:53:17;;;;;;;12.20;1.97;;;3.10;99.90;;;;;;5177522;28;20887;-50
2021/12/20 11:55:53;;;;;;;8.23;2.10;;;3.10;99.90;;;;;;5178984;28;20435;-50
2021/12/20 11:58:27;;;;;;;3.13;2.87;;;3.10;99.90;;;;;;5172552;28;20565;-50
2021/12/20 12:01:04;;;;;;;5.10;2.13;;;3.00;99.90;;;;;;5149276;28;20470;-51
2021/12/20 12:03:38;;;;;;;6.70;2.60;;;3.00;99.90;;;;;;5165690;28;20464;-52
2021/12/20 12:06:13;;;;;;;3.80;2.47;;;3.10;99.90;;;;;;5159839;28;20431;-51
2021/12/20 12:08:51;;;;;;;7.27;3.10;;;3.00;99.90;;;;;;5177310;28;20839;-51
2021/12/20 12:11:24;;;;;;;8.87;2.90;;;3.00;99.90;;;;;;5157258;28;20806;-51
2021/12/20 12:14:05;;;;;;;1.87;1.77;;;3.00;99.90;;;;;;5178041;28;20446;-51
2021/12/20 12:17:01;;;;;;;4.00;2.60;;;3.00;99.90;;;;;;5160297;28;20434;-51
2021/12/20 12:19:37;;;;;;;4.30;2.37;;;3.00;99.90;;;;;;5172883;28;20431;-51
2021/12/20 12:22:26;;;;;;;9.20;2.50;;;3.10;99.90;;;;;;5179233;28;20478;-52
2021/12/20 12:24:57;;;;;;;3.97;2.00;;;3.20;99.90;;;;;;5152337;28;20876;-51
2021/12/20 12:27:33;;;;;;;5.00;1.90;;;3.30;99.90;;;;;;5165155;28;20542;-51
2021/12/20 12:30:13;;;;;;;4.17;2.23;;;3.30;99.90;;;;;;5189664;28;20188;-51
2021/12/20 12:32:44;;;;;;;9.73;2.87;;;3.30;99.90;;;;;;5175585;28;20910;-51
2021/12/20 12:35:37;;;;;;;16.20;5.37;;;3.20;99.90;;;;;;5162714;28;20917;-51
2021/12/20 12:38:27;;;;;;;10.93;3.77;;;3.10;99.90;;;;;;5150126;28;20262;-50
2021/12/20 12:41:12;;;;;;;11.80;4.97;;;3.00;99.90;;;;;;5168232;28;20458;-50
2021/12/20 12:44:07;;;;;;;7.67;3.97;;;2.90;99.90;;;;;;5179529;28;21002;-52
2021/12/20 12:46:41;;;;;;;11.60;2.80;;;2.80;99.90;;;;;;5174716;28;20670;-52
2021/12/20 12:49:25;;;;;;;4.10;1.67;;;2.70;99.90;;;;;;5190321;28;20803;-51
2021/12/20 12:52:18;;;;;;;12.70;4.77;;;2.70;99.90;;;;;;5183828;28;20442;-52
2021/12/20 12:54:51;;;;;;;6.53;2.20;;;2.70;99.90;;;;;;5169763;28;20529;-51
2021/12/20 12:57:22;;;;;;;7.63;1.80;;;2.70;99.90;;;;;;5170389;28;20463;-52
2021/12/20 12:59:54;;;;;;;2.40;2.17;;;2.80;99.90;;;;;;5160904;28;20450;-51
2021/12/20 13:02:35;;;;;;;5.93;2.50;;;2.90;99.90;;;;;;5172677;28;20625;-51
2021/12/20 13:05:16;;;;;;;4.00;2.50;;;2.90;99.90;;;;;;5166419;28;20448;-51
2021/12/20 13:07:56;;;;;;;11.70;4.33;;;3.00;99.90;;;;;;5149730;28;20443;-51
2021/12/20 13:10:38;;;;;;;4.93;3.70;;;3.10;99.90;;;;;;5168074;28;20466;-50
2021/12/20 13:13:20;;;;;;;6.73;2.67;;;3.10;99.90;;;;;;5155091;28;20454;-51
2021/12/20 13:15:57;;;;;;;6.13;3.07;;;3.10;99.90;;;;;;5168727;28;20439;-50
2021/12/20 13:18:32;;;;;;;8.53;2.53;;;3.20;99.90;;;;;;5169697;28;20989;-52
2021/12/20 13:21:06;;;;;;;9.90;3.43;;;3.30;99.90;;;;;;5171625;28;20463;-50
2021/12/20 13:23:46;;;;;;;7.90;2.43;;;3.40;99.90;;;;;;5173733;28;20432;-50
2021/12/20 13:26:20;;;;;;;5.90;3.33;;;3.50;99.90;;;;;;5172096;28;20440;-51
2021/12/20 13:28:55;;;;;;;2.90;2.70;;;3.60;99.90;;;;;;5171614;28;20439;-53
2021/12/20 13:31:26;;;;;;;3.67;3.07;;;3.70;99.90;;;;;;5172473;28;20450;-51
2021/12/20 13:34:00;;;;;;;6.10;2.70;;;3.70;99.90;;;;;;5170516;28;20440;-51
2021/12/20 13:36:34;;;;;;;9.00;3.67;;;3.80;99.90;;;;;;5171962;28;20792;-55
2021/12/20 13:39:08;;;;;;;6.60;2.40;;;3.90;99.90;;;;;;5152736;28;20575;-51
2021/12/20 13:41:39;;;;;;;16.67;6.30;;;3.90;99.90;;;;;;5170232;28;20589;-49